Othello — LXOD — position and weather

sailwx.info

Track history (hours):
 
Tides and Currents Weather Stations Pressure Air Temp Water Temp Dewpoint Dewpoint Depression Visibility Wind Speed Wind Dir Waves Ship Positions

Othello

Last reported at 2015-Jul-08 05:33 UTC. Time now 2015-Jul-08 06:30 UTC.
Position N 38°20' W 010°05'.

Length 104 m; draft 5.7 m.

Type: Ship. MMSI: 253279000.

Date/timePositionNaut miles runAvg speedWind from/ knotsBaromVisibWave heightAir tempDewpointWater temp
2015-Jul-08 05:33N 38°20' W 010°05'1212.2
2015-Jul-08 04:33N 38°32' W 010°08'1212.4
2015-Jul-08 03:33N 38°44' W 010°11'1212.0
2015-Jul-08 02:33N 38°56' W 010°11'1212.1
2015-Jul-08 01:33N 39°08' W 010°12'1312.6
2015-Jul-08 00:33N 39°21' W 010°12'1312.5
2015-Jul-07 23:33N 39°33' W 010°12'1312.6
2015-Jul-07 22:33N 39°46' W 010°11'1412.4
2015-Jul-07 21:26N 39°60' W 010°12'2712.5
2015-Jul-07 19:16N 40°27' W 010°12'  
2015-Jul-05 07:33N 49°60' W 002°49'1110.6
2015-Jul-05 06:29N 50°03' W 002°32'2714.0
2015-Jul-05 04:33N 50°11' W 001°52'1915.7
2015-Jul-05 03:20N 50°17' W 001°24'1215.3
2015-Jul-05 02:32N 50°20' W 001°05'1313.5
2015-Jul-05 01:33N 50°24' W 000°45'1111.4
2015-Jul-05 00:33N 50°27' W 000°28'1010.3
2015-Jul-04 23:33N 50°29' W 000°12'9 9.4
2015-Jul-04 22:33N 50°32' E 000°02'9 9.4
2015-Jul-04 21:33N 50°34' E 000°16'1110.8
2015-Jul-04 20:33N 50°37' E 000°33'1212.5
2015-Jul-04 19:33N 50°44' E 000°49'1313.1
2015-Jul-04 18:33N 50°52' E 001°05'1212.3
2015-Jul-04 17:33N 51°00' E 001°20'1110.9
2015-Jul-04 16:33N 51°07' E 001°34'9 9.3
2015-Jul-04 15:33N 51°13' E 001°45'9 8.5
2015-Jul-04 14:33N 51°20' E 001°52'9 9.1
2015-Jul-04 13:33N 51°28' E 001°60'1010.4
2015-Jul-04 12:33N 51°36' E 002°12'1212.0
2015-Jul-04 11:33N 51°44' E 002°25'1313.1
2015-Jul-04 10:33N 51°54' E 002°40'1212.5
2015-Jul-04 09:33N 52°01' E 002°56'1212.3
2015-Jul-04 08:33N 52°02' E 003°16'1312.1
2015-Jul-04 07:30N 52°03' E 003°37'1111.9
2015-Jul-04 06:34N 52°03' E 003°55'1211.7
2015-Jul-04 05:33N 51°57' E 004°11'6 5.7
2015-Jul-04 04:33N 51°53' E 004°18'0 0.0
2015-Jul-04 03:29N 51°53' E 004°18'0 0.0
2015-Jul-04 02:20N 51°53' E 004°18'0 0.0
2015-Jul-04 00:17N 51°53' E 004°18'0 0.0
2015-Jul-03 23:32N 51°53' E 004°18'0 0.0
2015-Jul-03 22:32N 51°53' E 004°18'0 0.0
2015-Jul-03 21:32N 51°53' E 004°18'0 0.0
2015-Jul-03 20:23N 51°53' E 004°18'0 0.0
2015-Jul-03 19:32N 51°53' E 004°18'0 0.0
2015-Jul-03 18:29N 51°53' E 004°18'0 0.0
2015-Jul-03 17:32N 51°53' E 004°18'0 0.0
2015-Jul-03 16:29N 51°53' E 004°18'0 0.0
2015-Jul-03 15:32N 51°53' E 004°18'0 0.0
2015-Jul-03 14:32N 51°53' E 004°18'0 0.0
2015-Jul-03 13:29N 51°53' E 004°18'0 0.0
2015-Jul-03 12:23N 51°53' E 004°18'0 0.0
2015-Jul-03 11:29N 51°53' E 004°18'0 0.0
2015-Jul-03 10:26N 51°53' E 004°18'0 0.0
2015-Jul-03 09:17N 51°53' E 004°18'0 0.0
2015-Jul-03 08:26N 51°53' E 004°18'0 0.0
2015-Jul-03 07:29N 51°53' E 004°18'0 0.0
2015-Jul-03 06:20N 51°53' E 004°18'0 0.0
2015-Jul-03 05:32N 51°53' E 004°18'0 0.0
2015-Jul-03 04:29N 51°53' E 004°18'1 1.1
2015-Jul-03 03:33N 51°54' E 004°18'1211.7
2015-Jul-03 02:33N 51°60' E 004°02'9 8.5
2015-Jul-03 01:33N 51°57' E 003°48'0 0.0
2015-Jul-03 00:32N 51°57' E 003°48'0 0.1
2015-Jul-02 23:32N 51°57' E 003°48'0 0.0
2015-Jul-02 22:32N 51°57' E 003°48'0 0.0
2015-Jul-02 21:32N 51°57' E 003°48'0 0.0
2015-Jul-02 20:32N 51°57' E 003°48'0 0.0
2015-Jul-02 19:32N 51°57' E 003°48'0 0.0
2015-Jul-02 18:32N 51°57' E 003°49'0 0.1
2015-Jul-02 17:32N 51°57' E 003°49'0 0.0
2015-Jul-02 16:29N 51°57' E 003°49'0 0.0
2015-Jul-02 15:32N 51°57' E 003°49'0 0.0
2015-Jul-02 14:26N 51°57' E 003°49'0 0.0
2015-Jul-02 13:29N 51°57' E 003°49'0 0.0
2015-Jul-02 12:32N 51°57' E 003°49'0 0.0
2015-Jul-02 11:29N 51°57' E 003°49'0 0.1
2015-Jul-02 10:32N 51°57' E 003°48'0 0.0
2015-Jul-02 09:32N 51°57' E 003°48'0 0.0
2015-Jul-02 08:29N 51°57' E 003°48'0 0.0
2015-Jul-02 07:29N 51°57' E 003°48'0 0.1
2015-Jul-02 06:32N 51°57' E 003°49'0 0.0
2015-Jul-02 05:32N 51°57' E 003°49'3 2.6
2015-Jul-02 04:33N 51°58' E 003°45'1110.5
2015-Jul-02 03:33N 51°55' E 003°28'10 9.6
2015-Jul-02 02:33N 51°53' E 003°13'10 9.4
2015-Jul-02 01:33N 51°50' E 002°58'2010.1
2015-Jul-01 23:31N 51°39' E 002°30'1310.6
2015-Jul-01 22:17N 51°30' E 002°16'7 9.7
2015-Jul-01 21:32N 51°23' E 002°11'9 9.5
2015-Jul-01 20:33N 51°15' E 002°04'10 9.5
2015-Jul-01 19:33N 51°09' E 001°52'9 9.0
2015-Jul-01 18:33N 51°03' E 001°41'9 8.9
2015-Jul-01 17:33N 50°57' E 001°31'8 7.9
2015-Jul-01 16:32N 50°50' E 001°25'9 8.5
2015-Jul-01 15:28N 50°42' E 001°18'44 7.3
2015-Jul-01 09:29N 50°11' E 000°29'7 7.4
2015-Jul-01 08:33N 50°06' E 000°22'10 9.1
2015-Jul-01 07:29N 49°60' E 000°10'1010.8
2015-Jul-01 06:33N 49°53' W 000°01'10 9.7
2015-Jul-01 05:33N 49°46' W 000°11'9 9.0
2015-Jul-01 04:33N 49°38' W 000°18'8 8.5
2015-Jul-01 03:33N 49°30' W 000°12'1110.5
2015-Jul-01 02:33N 49°27' E 000°03'1414.1
2015-Jul-01 01:33N 49°27' E 000°25'5 4.0
2015-Jul-01 00:17N 49°28' E 000°33'0 0.0
2015-Jun-30 23:12N 49°28' E 000°33'0 0.0
2015-Jun-30 22:18N 49°28' E 000°33'0 0.0
2015-Jun-30 21:30N 49°28' E 000°33'0 0.0
2015-Jun-30 20:24N 49°28' E 000°33'0 0.0
2015-Jun-30 19:30N 49°28' E 000°33'0 0.0
2015-Jun-30 12:18N 49°28' E 000°33'0 0.0
2015-Jun-30 09:12N 49°28' E 000°33'0 0.0
2015-Jun-30 04:30N 49°28' E 000°33'0 0.0
2015-Jun-30 03:24N 49°28' E 000°33'0 0.0
2015-Jun-30 02:30N 49°28' E 000°33'0 0.0
2015-Jun-29 23:18N 49°28' E 000°33'0 0.0
2015-Jun-29 19:18N 49°28' E 000°33'0 0.0
2015-Jun-29 18:24N 49°28' E 000°33'0 0.0
2015-Jun-29 17:30N 49°28' E 000°33'0 0.0
2015-Jun-29 16:27N 49°28' E 000°33'0 0.0
2015-Jun-29 14:06N 49°28' E 000°33'0 0.0
2015-Jun-29 13:18N 49°28' E 000°33'0 0.0
2015-Jun-29 12:06N 49°28' E 000°33'0 0.0
2015-Jun-29 10:31N 49°28' E 000°33'5 5.2
2015-Jun-29 09:33N 49°27' E 000°25'1111.1
2015-Jun-29 08:33N 49°26' E 000°08'10 9.3
2015-Jun-29 07:31N 49°28' W 000°06'0 0.0
2015-Jun-29 06:31N 49°28' W 000°06'0 0.0
2015-Jun-29 05:31N 49°28' W 000°06'0 0.0
2015-Jun-29 04:31N 49°28' W 000°06'0 0.0
2015-Jun-29 03:31N 49°28' W 000°06'0 0.1
2015-Jun-29 02:31N 49°28' W 000°06'0 0.1
2015-Jun-29 01:31N 49°28' W 000°07'0 0.0
2015-Jun-29 00:31N 49°28' W 000°07'0 0.0
2015-Jun-28 23:28N 49°28' W 000°07'0 0.0
2015-Jun-28 22:31N 49°28' W 000°07'0 0.0
2015-Jun-28 21:28N 49°28' W 000°07'0 0.1
2015-Jun-28 20:31N 49°28' W 000°06'0 0.0
2015-Jun-28 19:31N 49°28' W 000°06'0 0.0
2015-Jun-28 18:31N 49°28' W 000°06'0 0.1
2015-Jun-28 17:33N 49°28' W 000°06'1211.5
2015-Jun-28 16:34N 49°39' W 000°10'1614.1
2015-Jun-28 15:27N 49°55' W 000°08'1714.2
2015-Jun-28 14:15N 50°12' W 000°07'1613.8
2015-Jun-28 13:05N 50°28' W 000°02'1314.9
2015-Jun-28 12:13N 50°33' E 000°17'1014.9
2015-Jun-28 11:33N 50°36' E 000°31'1414.2
2015-Jun-28 10:33N 50°45' E 000°49'1313.1
2015-Jun-28 09:33N 50°53' E 001°05'1211.9
2015-Jun-28 08:33N 51°00' E 001°20'1111.5
2015-Jun-28 07:33N 51°08' E 001°34'1212.5
2015-Jun-28 06:33N 51°17' E 001°48'1414.0
2015-Jun-28 05:34N 51°28' E 001°60'  
Track history (hours):
 
Tides and Currents Weather Stations Pressure Air Temp Water Temp Dewpoint Dewpoint Depression Visibility Wind Speed Wind Dir Waves Ship Positions

Othello

Last reported at 2015-Jul-08 05:33 UTC. Time now 2015-Jul-08 06:30 UTC.
Position N 38°20' W 010°05'.

Length 104 m; draft 5.7 m.

Type: Ship. MMSI: 253279000.

Date/timePositionNaut miles runAvg speedWind from/ knotsBaromVisibWave heightAir tempDewpointWater temp
2015-Jul-08 05:33N 38°20' W 010°05'1212.2
2015-Jul-08 04:33N 38°32' W 010°08'1212.4
2015-Jul-08 03:33N 38°44' W 010°11'1212.0
2015-Jul-08 02:33N 38°56' W 010°11'1212.1
2015-Jul-08 01:33N 39°08' W 010°12'1312.6
2015-Jul-08 00:33N 39°21' W 010°12'1312.5
2015-Jul-07 23:33N 39°33' W 010°12'1312.6
2015-Jul-07 22:33N 39°46' W 010°11'1412.4
2015-Jul-07 21:26N 39°60' W 010°12'2712.5
2015-Jul-07 19:16N 40°27' W 010°12'  
2015-Jul-05 07:33N 49°60' W 002°49'1110.6
2015-Jul-05 06:29N 50°03' W 002°32'2714.0
2015-Jul-05 04:33N 50°11' W 001°52'1915.7
2015-Jul-05 03:20N 50°17' W 001°24'1215.3
2015-Jul-05 02:32N 50°20' W 001°05'1313.5
2015-Jul-05 01:33N 50°24' W 000°45'1111.4
2015-Jul-05 00:33N 50°27' W 000°28'1010.3
2015-Jul-04 23:33N 50°29' W 000°12'9 9.4
2015-Jul-04 22:33N 50°32' E 000°02'9 9.4
2015-Jul-04 21:33N 50°34' E 000°16'1110.8
2015-Jul-04 20:33N 50°37' E 000°33'1212.5
2015-Jul-04 19:33N 50°44' E 000°49'1313.1
2015-Jul-04 18:33N 50°52' E 001°05'1212.3
2015-Jul-04 17:33N 51°00' E 001°20'1110.9
2015-Jul-04 16:33N 51°07' E 001°34'9 9.3
2015-Jul-04 15:33N 51°13' E 001°45'9 8.5
2015-Jul-04 14:33N 51°20' E 001°52'9 9.1
2015-Jul-04 13:33N 51°28' E 001°60'1010.4
2015-Jul-04 12:33N 51°36' E 002°12'1212.0
2015-Jul-04 11:33N 51°44' E 002°25'1313.1
2015-Jul-04 10:33N 51°54' E 002°40'1212.5
2015-Jul-04 09:33N 52°01' E 002°56'1212.3
2015-Jul-04 08:33N 52°02' E 003°16'1312.1
2015-Jul-04 07:30N 52°03' E 003°37'1111.9
2015-Jul-04 06:34N 52°03' E 003°55'1211.7
2015-Jul-04 05:33N 51°57' E 004°11'6 5.7
2015-Jul-04 04:33N 51°53' E 004°18'0 0.0
2015-Jul-04 03:29N 51°53' E 004°18'0 0.0
2015-Jul-04 02:20N 51°53' E 004°18'0 0.0
2015-Jul-04 00:17N 51°53' E 004°18'0 0.0
2015-Jul-03 23:32N 51°53' E 004°18'0 0.0
2015-Jul-03 22:32N 51°53' E 004°18'0 0.0
2015-Jul-03 21:32N 51°53' E 004°18'0 0.0
2015-Jul-03 20:23N 51°53' E 004°18'0 0.0
2015-Jul-03 19:32N 51°53' E 004°18'0 0.0
2015-Jul-03 18:29N 51°53' E 004°18'0 0.0
2015-Jul-03 17:32N 51°53' E 004°18'0 0.0
2015-Jul-03 16:29N 51°53' E 004°18'0 0.0
2015-Jul-03 15:32N 51°53' E 004°18'0 0.0
2015-Jul-03 14:32N 51°53' E 004°18'0 0.0
2015-Jul-03 13:29N 51°53' E 004°18'0 0.0
2015-Jul-03 12:23N 51°53' E 004°18'0 0.0
2015-Jul-03 11:29N 51°53' E 004°18'0 0.0
2015-Jul-03 10:26N 51°53' E 004°18'0 0.0
2015-Jul-03 09:17N 51°53' E 004°18'0 0.0
2015-Jul-03 08:26N 51°53' E 004°18'0 0.0
2015-Jul-03 07:29N 51°53' E 004°18'0 0.0
2015-Jul-03 06:20N 51°53' E 004°18'0 0.0
2015-Jul-03 05:32N 51°53' E 004°18'0 0.0
2015-Jul-03 04:29N 51°53' E 004°18'1 1.1
2015-Jul-03 03:33N 51°54' E 004°18'1211.7
2015-Jul-03 02:33N 51°60' E 004°02'9 8.5
2015-Jul-03 01:33N 51°57' E 003°48'0 0.0
2015-Jul-03 00:32N 51°57' E 003°48'0 0.1
2015-Jul-02 23:32N 51°57' E 003°48'0 0.0
2015-Jul-02 22:32N 51°57' E 003°48'0 0.0
2015-Jul-02 21:32N 51°57' E 003°48'0 0.0
2015-Jul-02 20:32N 51°57' E 003°48'0 0.0
2015-Jul-02 19:32N 51°57' E 003°48'0 0.0
2015-Jul-02 18:32N 51°57' E 003°49'0 0.1
2015-Jul-02 17:32N 51°57' E 003°49'0 0.0
2015-Jul-02 16:29N 51°57' E 003°49'0 0.0
2015-Jul-02 15:32N 51°57' E 003°49'0 0.0
2015-Jul-02 14:26N 51°57' E 003°49'0 0.0
2015-Jul-02 13:29N 51°57' E 003°49'0 0.0
2015-Jul-02 12:32N 51°57' E 003°49'0 0.0
2015-Jul-02 11:29N 51°57' E 003°49'0 0.1
2015-Jul-02 10:32N 51°57' E 003°48'0 0.0
2015-Jul-02 09:32N 51°57' E 003°48'0 0.0
2015-Jul-02 08:29N 51°57' E 003°48'0 0.0
2015-Jul-02 07:29N 51°57' E 003°48'0 0.1
2015-Jul-02 06:32N 51°57' E 003°49'0 0.0
2015-Jul-02 05:32N 51°57' E 003°49'3 2.6
2015-Jul-02 04:33N 51°58' E 003°45'1110.5
2015-Jul-02 03:33N 51°55' E 003°28'10 9.6
2015-Jul-02 02:33N 51°53' E 003°13'10 9.4
2015-Jul-02 01:33N 51°50' E 002°58'2010.1
2015-Jul-01 23:31N 51°39' E 002°30'1310.6
2015-Jul-01 22:17N 51°30' E 002°16'7 9.7
2015-Jul-01 21:32N 51°23' E 002°11'9 9.5
2015-Jul-01 20:33N 51°15' E 002°04'10 9.5
2015-Jul-01 19:33N 51°09' E 001°52'9 9.0
2015-Jul-01 18:33N 51°03' E 001°41'9 8.9
2015-Jul-01 17:33N 50°57' E 001°31'8 7.9
2015-Jul-01 16:32N 50°50' E 001°25'9 8.5
2015-Jul-01 15:28N 50°42' E 001°18'44 7.3
2015-Jul-01 09:29N 50°11' E 000°29'7 7.4
2015-Jul-01 08:33N 50°06' E 000°22'10 9.1
2015-Jul-01 07:29N 49°60' E 000°10'1010.8
2015-Jul-01 06:33N 49°53' W 000°01'10 9.7
2015-Jul-01 05:33N 49°46' W 000°11'9 9.0
2015-Jul-01 04:33N 49°38' W 000°18'8 8.5
2015-Jul-01 03:33N 49°30' W 000°12'1110.5
2015-Jul-01 02:33N 49°27' E 000°03'1414.1
2015-Jul-01 01:33N 49°27' E 000°25'5 4.0
2015-Jul-01 00:17N 49°28' E 000°33'0 0.0
2015-Jun-30 23:12N 49°28' E 000°33'0 0.0
2015-Jun-30 22:18N 49°28' E 000°33'0 0.0
2015-Jun-30 21:30N 49°28' E 000°33'0 0.0
2015-Jun-30 20:24N 49°28' E 000°33'0 0.0
2015-Jun-30 19:30N 49°28' E 000°33'0 0.0
2015-Jun-30 12:18N 49°28' E 000°33'0 0.0
2015-Jun-30 09:12N 49°28' E 000°33'0 0.0
2015-Jun-30 04:30N 49°28' E 000°33'0 0.0
2015-Jun-30 03:24N 49°28' E 000°33'0 0.0
2015-Jun-30 02:30N 49°28' E 000°33'0 0.0
2015-Jun-29 23:18N 49°28' E 000°33'0 0.0
2015-Jun-29 19:18N 49°28' E 000°33'0 0.0
2015-Jun-29 18:24N 49°28' E 000°33'0 0.0
2015-Jun-29 17:30N 49°28' E 000°33'0 0.0
2015-Jun-29 16:27N 49°28' E 000°33'0 0.0
2015-Jun-29 14:06N 49°28' E 000°33'0 0.0
2015-Jun-29 13:18N 49°28' E 000°33'0 0.0
2015-Jun-29 12:06N 49°28' E 000°33'0 0.0
2015-Jun-29 10:31N 49°28' E 000°33'5 5.2
2015-Jun-29 09:33N 49°27' E 000°25'1111.1
2015-Jun-29 08:33N 49°26' E 000°08'10 9.3
2015-Jun-29 07:31N 49°28' W 000°06'0 0.0
2015-Jun-29 06:31N 49°28' W 000°06'0 0.0
2015-Jun-29 05:31N 49°28' W 000°06'0 0.0
2015-Jun-29 04:31N 49°28' W 000°06'0 0.0
2015-Jun-29 03:31N 49°28' W 000°06'0 0.1
2015-Jun-29 02:31N 49°28' W 000°06'0 0.1
2015-Jun-29 01:31N 49°28' W 000°07'0 0.0
2015-Jun-29 00:31N 49°28' W 000°07'0 0.0
2015-Jun-28 23:28N 49°28' W 000°07'0 0.0
2015-Jun-28 22:31N 49°28' W 000°07'0 0.0
2015-Jun-28 21:28N 49°28' W 000°07'0 0.1
2015-Jun-28 20:31N 49°28' W 000°06'0 0.0
2015-Jun-28 19:31N 49°28' W 000°06'0 0.0
2015-Jun-28 18:31N 49°28' W 000°06'0 0.1
2015-Jun-28 17:33N 49°28' W 000°06'1211.5
2015-Jun-28 16:34N 49°39' W 000°10'1614.1
2015-Jun-28 15:27N 49°55' W 000°08'1714.2
2015-Jun-28 14:15N 50°12' W 000°07'1613.8
2015-Jun-28 13:05N 50°28' W 000°02'1314.9
2015-Jun-28 12:13N 50°33' E 000°17'1014.9
2015-Jun-28 11:33N 50°36' E 000°31'1414.2
2015-Jun-28 10:33N 50°45' E 000°49'1313.1
2015-Jun-28 09:33N 50°53' E 001°05'1211.9
2015-Jun-28 08:33N 51°00' E 001°20'1111.5
2015-Jun-28 07:33N 51°08' E 001°34'1212.5
2015-Jun-28 06:33N 51°17' E 001°48'1414.0
2015-Jun-28 05:34N 51°28' E 001°60'  

Dump ship's entire track history